Huvudsida
METAR-TAF:

METAR-TAF

Flygplatser :

Riga, Lettland

Rigas internationella flygplats

latitud: 56-55N, longitud: 023-58E, höjd: 10 m

Aktuellt väderrapport

Denna rapport gjordes för 8 minuter sedan, klockan 14:50 UTC
Vind 13 kt från nord/nordväst, varierande mellan väst/nordväst och nord
Temperatur 11°C
Fuktighet 54%
Tryck 1010 hPa
Sikt 10 km eller mer
Inga moln under 1 500 m eller inga cumulonimbus

METAR: EVRA 211450Z 34013KT 290V360 CAVOK 11/02 Q1010 NOSIG

Tid: 17:58 (14:58 UTC)

Väderprognos

Denna rapport gjordes för 58 minuter sedan, klockan 14:00 UTC
Prognos gäller från 21 kl. 15 UTC till 22 kl. 15 UTC
Vind 12 kt från nordväst
Sikt 10 km eller mer
Spridda moln på en höjd av 2000 ft
Blir
från 21 kl. 18 UTC till 21 kl. 20 UTC
Vind 7 kt från väst
Blir
från 22 kl. 06 UTC till 22 kl. 08 UTC
Vind 10 kt från nordväst

TAF: EVRA 211400Z 2115/2215 32012KT 9999 SCT020 BECMG 2118/2120 26007KT BECMG 2206/2208 32010KT

Aktuella väderrapporter och prognoser från 4000 flygplatser (METAR- och TAF-rapporter).

De tillgängliga stationerna syns som gula och röda prickar på kartan.

För musen över prickarna för att se namnen på stationerna.

Klicka sedan för att få väderrapporter och prognoser.

För att ändra kartan: Klicka på de gröna knapparna med ett svart kors på för att zooma in; den gröna knappen med ett streck på för att zooma ut; eller på de gröna pilarna för angränsande kartor.


METAR-TAF: